Andersonville, Georgia
Current Conditions -  °F | °C
As of 8:15 AM on Sunday 21 Dec 2014 (Local Time) from KACJ Reporting Station
Overcast Overcast  
Wind Chill: 10°   Ceiling: 700
Heat Index: 10°   Visibility: 7mi
Dew Point: 10°   Wind: 8mph
Humidity: 100%   Direction: 60°ENE
Pressure: 30.18"   Gusts: NA
Location:  32.2°N, 84.14°W
Report Text: KACJ 211315Z AUTO 06007KT 7SM OVC007 10/10 A3018 RMK AO2
Loading
Personal Weather Stations






























Interactive Weather Map New forecast layout! Learn more

10-Day Weather Forecast

Advertisements
Track Severe Weather on mobile